createdAt,value
2022-07-26T00:00:21.148Z,7.30
2022-07-26T00:03:18.610Z,7.30
2022-07-26T00:06:16.044Z,8.40
2022-07-26T00:09:16.358Z,7.00
2022-07-26T00:12:13.843Z,6.80
2022-07-26T00:15:11.294Z,6.80
2022-07-26T00:18:12.022Z,8.40
2022-07-26T00:21:09.983Z,7.70
2022-07-26T00:24:09.249Z,7.40
2022-07-26T00:27:06.719Z,6.60
2022-07-26T00:30:04.204Z,6.80
2022-07-26T00:33:01.688Z,7.50
2022-07-26T00:35:59.160Z,7.70
2022-07-26T00:38:56.605Z,6.70
2022-07-26T00:41:54.062Z,7.60
2022-07-26T00:44:51.524Z,7.40
2022-07-26T00:47:48.969Z,6.80
2022-07-26T00:50:46.451Z,7.30
2022-07-26T00:53:43.910Z,9.80
2022-07-26T00:56:41.423Z,13.00
2022-07-26T00:59:38.889Z,7.00
2022-07-26T01:02:36.361Z,12.30
2022-07-26T01:05:33.970Z,7.40
2022-07-26T01:08:31.421Z,9.80
2022-07-26T01:11:28.869Z,11.80
2022-07-26T01:14:26.350Z,19.40
2022-07-26T01:17:23.904Z,12.60
2022-07-26T01:20:21.378Z,13.30
2022-07-26T01:23:18.854Z,12.30
2022-07-26T01:26:16.304Z,9.20
2022-07-26T01:29:13.793Z,5.30
2022-07-26T01:32:11.266Z,6.40
2022-07-26T01:35:08.746Z,6.50
2022-07-26T01:38:06.257Z,5.30
2022-07-26T01:41:03.706Z,9.10
2022-07-26T01:44:01.152Z,7.80
2022-07-26T01:46:58.597Z,4.80
2022-07-26T01:49:56.081Z,5.10
2022-07-26T01:52:53.555Z,5.90
2022-07-26T01:55:51.010Z,4.10
2022-07-26T01:58:48.460Z,4.50
2022-07-26T02:01:45.932Z,9.80
2022-07-26T02:05:02.125Z,6.30
2022-07-26T02:07:59.594Z,4.30
2022-07-26T02:11:04.007Z,5.70
2022-07-26T02:14:01.743Z,7.10
2022-07-26T02:17:00.811Z,5.20
2022-07-26T02:19:58.285Z,3.80
2022-07-26T02:22:55.738Z,4.60
2022-07-26T02:25:53.179Z,7.30
2022-07-26T02:28:50.661Z,4.40
2022-07-26T02:31:48.407Z,4.40
2022-07-26T02:34:46.836Z,4.90
2022-07-26T02:37:44.335Z,4.00
2022-07-26T02:40:41.805Z,3.20
2022-07-26T02:43:39.267Z,3.90
2022-07-26T02:46:37.583Z,4.40
2022-07-26T02:49:35.114Z,4.60
2022-07-26T02:52:32.554Z,3.70
2022-07-26T02:55:30.036Z,3.20
2022-07-26T02:58:28.166Z,3.10
2022-07-26T03:01:25.743Z,3.20
2022-07-26T03:04:23.729Z,3.10
2022-07-26T03:07:21.197Z,3.00
2022-07-26T03:10:18.648Z,4.00
2022-07-26T03:13:16.442Z,3.10
2022-07-26T03:16:14.000Z,3.70
2022-07-26T03:19:11.574Z,3.50
2022-07-26T03:22:09.070Z,4.50
2022-07-26T03:25:06.680Z,2.90
2022-07-26T03:28:04.117Z,3.30
2022-07-26T03:31:01.679Z,4.70
2022-07-26T03:34:03.095Z,4.50
2022-07-26T03:37:00.961Z,4.20
2022-07-26T03:39:58.440Z,5.20
2022-07-26T03:42:57.271Z,2.60
2022-07-26T03:45:54.874Z,3.30
2022-07-26T03:48:52.537Z,3.20
2022-07-26T03:51:50.045Z,3.50
2022-07-26T03:54:47.498Z,3.20
2022-07-26T03:57:44.962Z,3.20
2022-07-26T04:00:42.428Z,4.00
2022-07-26T04:03:42.197Z,4.90
2022-07-26T04:06:44.951Z,3.00
2022-07-26T04:09:42.375Z,3.00
2022-07-26T04:12:39.873Z,4.70
2022-07-26T04:15:37.348Z,4.30
2022-07-26T04:18:34.804Z,5.20
2022-07-26T04:21:32.241Z,3.40
2022-07-26T04:24:29.701Z,2.90
2022-07-26T04:27:27.183Z,5.10
2022-07-26T04:30:27.304Z,2.90
2022-07-26T04:33:24.929Z,3.90
2022-07-26T04:36:22.384Z,3.80
2022-07-26T04:39:24.601Z,4.20
2022-07-26T04:42:22.056Z,3.50
2022-07-26T04:45:19.503Z,3.50
2022-07-26T04:48:16.988Z,3.00
2022-07-26T04:51:14.452Z,3.50
2022-07-26T04:54:12.003Z,3.30
2022-07-26T04:57:09.501Z,4.10
2022-07-26T05:00:23.300Z,3.90
2022-07-26T05:03:25.227Z,3.10
2022-07-26T05:06:22.831Z,3.90
2022-07-26T05:09:21.562Z,3.40
2022-07-26T05:12:19.041Z,4.50
2022-07-26T05:15:16.501Z,4.40
2022-07-26T05:18:13.961Z,3.60
2022-07-26T05:21:11.724Z,4.00
2022-07-26T05:24:09.569Z,2.90
2022-07-26T05:27:07.488Z,3.50
2022-07-26T05:30:04.925Z,4.70
2022-07-26T05:33:02.385Z,3.30
2022-07-26T05:35:59.851Z,7.10
2022-07-26T05:38:57.299Z,5.30
2022-07-26T05:41:54.756Z,4.10
2022-07-26T05:44:52.189Z,3.30
2022-07-26T05:47:49.958Z,5.90
2022-07-26T05:50:47.415Z,3.70
2022-07-26T05:53:47.477Z,4.50
2022-07-26T05:56:44.931Z,3.80
2022-07-26T05:59:42.360Z,6.00
2022-07-26T06:02:39.828Z,3.10
2022-07-26T06:05:37.343Z,4.30
2022-07-26T06:08:34.795Z,5.10
2022-07-26T06:11:32.317Z,3.10
2022-07-26T06:14:29.769Z,3.50
2022-07-26T06:17:30.480Z,3.30
2022-07-26T06:20:28.073Z,4.40
2022-07-26T06:23:33.821Z,6.20
2022-07-26T06:26:32.630Z,3.40
2022-07-26T06:29:32.369Z,3.70
2022-07-26T06:32:30.203Z,3.40
2022-07-26T06:35:31.107Z,3.10
2022-07-26T06:38:28.610Z,3.10
2022-07-26T06:41:26.076Z,3.40
2022-07-26T06:44:23.941Z,4.60
2022-07-26T06:47:21.435Z,4.60
2022-07-26T06:50:20.838Z,3.30
2022-07-26T06:53:23.240Z,3.30
2022-07-26T06:56:20.686Z,7.10
2022-07-26T06:59:21.477Z,3.20
2022-07-26T07:02:18.970Z,2.70
2022-07-26T07:05:16.607Z,2.60
2022-07-26T07:08:14.159Z,2.50
2022-07-26T07:11:11.914Z,2.50
2022-07-26T07:14:10.018Z,5.20
2022-07-26T07:17:11.080Z,2.60
2022-07-26T07:20:11.562Z,2.40
2022-07-26T07:23:09.189Z,2.90
2022-07-26T07:26:06.673Z,3.10
2022-07-26T07:29:04.369Z,1.90
2022-07-26T07:32:03.437Z,3.00
2022-07-26T07:35:01.285Z,2.80
2022-07-26T07:37:58.762Z,2.70
2022-07-26T07:40:56.243Z,2.30
2022-07-26T07:43:53.730Z,2.20
2022-07-26T07:46:51.234Z,2.30
2022-07-26T07:49:48.786Z,3.20
2022-07-26T07:52:46.248Z,2.30
2022-07-26T07:55:46.269Z,3.40
2022-07-26T07:58:44.393Z,3.60
2022-07-26T08:01:42.530Z,2.70
2022-07-26T08:04:42.749Z,2.40
2022-07-26T08:07:40.194Z,2.40
2022-07-26T08:10:41.739Z,3.10
2022-07-26T08:13:49.162Z,2.40
2022-07-26T08:16:46.815Z,2.70
2022-07-26T08:19:44.476Z,2.40
2022-07-26T08:22:41.947Z,3.30
2022-07-26T08:25:50.099Z,3.20
2022-07-26T08:28:58.315Z,2.90
2022-07-26T08:31:57.747Z,2.80
2022-07-26T08:34:55.265Z,2.50
2022-07-26T08:38:12.664Z,2.80
2022-07-26T08:41:10.148Z,4.20
2022-07-26T08:44:07.607Z,2.60
2022-07-26T08:47:05.166Z,2.60
2022-07-26T08:50:02.707Z,3.20
2022-07-26T08:53:00.175Z,2.50
2022-07-26T08:56:07.026Z,2.90
2022-07-26T08:59:05.208Z,4.00
2022-07-26T09:02:02.961Z,6.40
2022-07-26T09:05:00.402Z,2.70
2022-07-26T09:07:57.889Z,2.60
2022-07-26T09:10:55.705Z,2.50
2022-07-26T09:13:53.199Z,4.90
2022-07-26T09:16:50.806Z,3.50
2022-07-26T09:19:48.316Z,4.00
2022-07-26T09:22:45.816Z,2.70
2022-07-26T09:25:43.369Z,3.50
2022-07-26T09:28:45.015Z,4.10
2022-07-26T09:31:44.643Z,3.90
2022-07-26T09:34:52.079Z,2.80
2022-07-26T09:37:50.426Z,2.80
2022-07-26T09:40:51.324Z,4.00
2022-07-26T09:43:53.650Z,5.80
2022-07-26T09:46:51.841Z,2.60
2022-07-26T09:49:49.476Z,3.60
2022-07-26T09:52:46.995Z,2.50
2022-07-26T09:55:45.162Z,2.60
2022-07-26T09:58:42.886Z,3.10
2022-07-26T10:01:40.427Z,2.80
2022-07-26T10:04:37.890Z,3.20
2022-07-26T10:07:35.363Z,3.30
2022-07-26T10:10:32.834Z,2.70
2022-07-26T10:13:30.530Z,2.90
2022-07-26T10:16:28.148Z,6.00
2022-07-26T10:19:26.963Z,2.70
2022-07-26T10:22:30.661Z,2.70
2022-07-26T10:25:28.152Z,2.70
2022-07-26T10:28:26.823Z,3.50
2022-07-26T10:31:24.421Z,2.70
2022-07-26T10:34:21.990Z,5.00
2022-07-26T10:37:19.461Z,2.80
2022-07-26T10:40:16.930Z,2.90
2022-07-26T10:43:39.515Z,3.20
2022-07-26T10:46:32.202Z,3.30
2022-07-26T10:49:29.723Z,2.80
2022-07-26T10:52:27.509Z,4.60
2022-07-26T10:55:24.967Z,4.70
2022-07-26T10:58:22.455Z,3.10
2022-07-26T11:01:20.004Z,3.70
2022-07-26T11:04:17.504Z,3.70
2022-07-26T11:07:14.957Z,5.40
2022-07-26T11:10:12.450Z,4.10
2022-07-26T11:13:09.922Z,4.80
2022-07-26T11:16:07.469Z,5.60
2022-07-26T11:19:04.993Z,8.20
2022-07-26T11:22:02.455Z,5.10
2022-07-26T11:24:59.971Z,5.80
2022-07-26T11:27:57.457Z,5.40
2022-07-26T11:30:56.096Z,6.50
2022-07-26T11:33:53.681Z,4.90
2022-07-26T11:36:51.212Z,5.10
2022-07-26T11:39:48.706Z,5.00
2022-07-26T11:42:46.166Z,3.40
2022-07-26T11:45:43.641Z,5.10
2022-07-26T11:48:41.240Z,3.10
2022-07-26T11:51:38.766Z,4.40
2022-07-26T11:54:36.619Z,5.10
2022-07-26T11:57:34.194Z,3.90
2022-07-26T12:00:31.673Z,6.30
2022-07-26T12:03:29.782Z,4.90
2022-07-26T12:06:27.489Z,3.00
2022-07-26T12:09:24.981Z,4.60
2022-07-26T12:12:23.640Z,3.30
2022-07-26T12:15:21.130Z,3.50
2022-07-26T12:18:18.574Z,4.10
2022-07-26T12:21:16.051Z,3.80
2022-07-26T12:24:13.855Z,5.00
2022-07-26T12:27:11.522Z,4.40
2022-07-26T12:30:09.022Z,3.60
2022-07-26T12:33:06.534Z,4.40
2022-07-26T12:36:04.021Z,3.30
2022-07-26T12:39:01.519Z,2.60
2022-07-26T12:41:59.042Z,3.40
2022-07-26T12:44:56.533Z,4.20
2022-07-26T12:47:54.022Z,3.50
2022-07-26T12:50:51.490Z,5.50
2022-07-26T12:53:48.948Z,7.10
2022-07-26T12:56:46.578Z,6.70
2022-07-26T12:59:46.309Z,7.10
2022-07-26T13:02:43.794Z,7.60
2022-07-26T13:05:41.274Z,8.50
2022-07-26T13:08:38.764Z,11.10
2022-07-26T13:11:36.256Z,9.60
2022-07-26T13:14:33.735Z,12.00
2022-07-26T13:17:31.211Z,12.40
2022-07-26T13:20:28.710Z,15.10
2022-07-26T13:23:26.825Z,16.50
2022-07-26T13:26:24.521Z,18.50
2022-07-26T13:29:22.373Z,17.10
2022-07-26T13:32:19.967Z,17.50
2022-07-26T13:35:17.915Z,19.20
2022-07-26T13:38:15.397Z,18.50
2022-07-26T13:41:12.868Z,17.90
2022-07-26T13:44:10.497Z,16.50
2022-07-26T13:47:09.308Z,15.10
2022-07-26T13:50:08.465Z,13.90
2022-07-26T13:53:05.923Z,14.10
2022-07-26T13:56:03.393Z,14.10
2022-07-26T13:59:00.829Z,13.10
2022-07-26T14:01:58.450Z,11.20
2022-07-26T14:04:56.118Z,11.80
2022-07-26T14:07:53.572Z,11.30
2022-07-26T14:10:51.046Z,10.00
2022-07-26T14:13:48.538Z,10.90
2022-07-26T14:16:49.353Z,11.40
2022-07-26T14:19:47.096Z,11.70
2022-07-26T14:22:44.590Z,10.40
2022-07-26T14:25:42.285Z,9.80
2022-07-26T14:28:39.767Z,9.70
2022-07-26T14:31:37.277Z,10.30
2022-07-26T14:34:34.774Z,8.00
2022-07-26T14:37:42.402Z,7.40
2022-07-26T14:40:42.234Z,7.20
2022-07-26T14:43:39.731Z,8.90
2022-07-26T14:46:37.210Z,7.50
2022-07-26T14:49:34.784Z,9.00
2022-07-26T14:52:32.330Z,8.20
2022-07-26T14:55:29.922Z,7.00
2022-07-26T14:58:27.434Z,7.10
2022-07-26T15:01:24.952Z,7.00
2022-07-26T15:04:24.878Z,6.90
2022-07-26T15:07:22.383Z,7.60
2022-07-26T15:10:29.295Z,7.40
2022-07-26T15:13:26.784Z,7.20
2022-07-26T15:16:24.345Z,7.80
2022-07-26T15:19:25.688Z,8.50
2022-07-26T15:22:23.621Z,7.90
2022-07-26T15:25:21.128Z,8.10
2022-07-26T15:28:18.625Z,10.20
2022-07-26T15:31:16.240Z,8.80
2022-07-26T15:34:14.129Z,9.90
2022-07-26T15:37:11.834Z,9.30
2022-07-26T15:40:09.336Z,8.90
2022-07-26T15:43:06.827Z,9.20
2022-07-26T15:46:04.750Z,9.30
2022-07-26T15:49:02.972Z,11.40
2022-07-26T15:52:00.557Z,9.90
2022-07-26T15:54:58.071Z,12.50
2022-07-26T15:57:55.544Z,10.90
2022-07-26T16:00:53.023Z,11.00
2022-07-26T16:03:50.498Z,10.10
2022-07-26T16:06:48.255Z,11.50
2022-07-26T16:09:45.750Z,12.30
2022-07-26T16:12:43.253Z,10.80
2022-07-26T16:15:40.830Z,11.80
2022-07-26T16:18:41.829Z,11.10
2022-07-26T16:21:40.623Z,14.20
2022-07-26T16:24:38.118Z,10.40
2022-07-26T16:27:35.628Z,11.70
2022-07-26T16:30:33.144Z,11.10
2022-07-26T16:33:30.768Z,11.30
2022-07-26T16:36:30.458Z,11.60
2022-07-26T16:39:27.990Z,12.70
2022-07-26T16:42:25.502Z,11.90
2022-07-26T16:45:23.000Z,12.10
2022-07-26T16:48:20.527Z,12.80
2022-07-26T16:51:18.018Z,11.20
2022-07-26T16:54:15.492Z,10.70
2022-07-26T16:57:12.952Z,11.60
2022-07-26T17:00:10.875Z,10.60
2022-07-26T17:03:08.356Z,10.80
2022-07-26T17:06:07.125Z,10.80
2022-07-26T17:09:04.631Z,10.90
2022-07-26T17:12:06.387Z,9.30
2022-07-26T17:15:04.375Z,9.90
2022-07-26T17:18:01.840Z,10.90
2022-07-26T17:20:59.365Z,10.20
2022-07-26T17:23:56.835Z,10.10
2022-07-26T17:26:54.321Z,11.30
2022-07-26T17:29:53.250Z,10.10
2022-07-26T17:32:50.757Z,11.20
2022-07-26T17:35:48.765Z,12.00
2022-07-26T17:38:46.885Z,10.50
2022-07-26T17:41:49.209Z,9.90
2022-07-26T17:44:46.703Z,10.00
2022-07-26T17:47:44.268Z,11.00
2022-07-26T17:50:41.762Z,9.70
2022-07-26T17:53:39.218Z,10.20
2022-07-26T17:56:36.701Z,9.50
2022-07-26T17:59:34.166Z,10.30
2022-07-26T18:02:33.611Z,10.30
2022-07-26T18:05:35.093Z,12.00
2022-07-26T18:08:34.592Z,10.50
2022-07-26T18:11:32.039Z,14.90
2022-07-26T18:14:29.508Z,13.60
2022-07-26T18:17:26.985Z,9.70
2022-07-26T18:20:24.532Z,10.90
2022-07-26T18:23:22.193Z,11.90
2022-07-26T18:26:19.988Z,9.90
2022-07-26T18:29:17.457Z,10.00
2022-07-26T18:32:15.438Z,10.40
2022-07-26T18:35:12.896Z,10.40
2022-07-26T18:38:10.388Z,11.00
2022-07-26T18:41:07.876Z,11.40
2022-07-26T18:44:05.364Z,9.90
2022-07-26T18:47:02.911Z,10.20
2022-07-26T18:50:00.412Z,10.40
2022-07-26T18:52:59.388Z,9.70
2022-07-26T18:55:57.565Z,9.60
2022-07-26T18:58:55.076Z,10.80
2022-07-26T19:01:52.630Z,9.50
2022-07-26T19:04:50.205Z,10.10
2022-07-26T19:07:47.677Z,11.40
2022-07-26T19:10:45.135Z,9.00
2022-07-26T19:13:42.978Z,9.90
2022-07-26T19:16:40.465Z,8.00
2022-07-26T19:19:37.930Z,10.60
2022-07-26T19:22:35.430Z,8.40
2022-07-26T19:25:32.918Z,8.10
2022-07-26T19:28:30.403Z,7.70
2022-07-26T19:31:27.953Z,9.60
2022-07-26T19:34:26.901Z,8.90
2022-07-26T19:37:24.378Z,8.10
2022-07-26T19:40:21.952Z,7.50
2022-07-26T19:43:19.428Z,9.10
2022-07-26T19:46:19.207Z,9.00
2022-07-26T19:49:17.343Z,9.60
2022-07-26T19:52:15.006Z,8.70
2022-07-26T19:55:12.465Z,7.40
2022-07-26T19:58:09.951Z,7.90
2022-07-26T20:01:07.461Z,8.20
2022-07-26T20:04:04.984Z,7.80
2022-07-26T20:07:02.492Z,8.50
2022-07-26T20:09:59.974Z,7.40
2022-07-26T20:12:57.453Z,7.40
2022-07-26T20:15:54.944Z,7.00
2022-07-26T20:18:52.818Z,10.30
2022-07-26T20:21:50.328Z,6.90
2022-07-26T20:24:47.806Z,6.50
2022-07-26T20:27:48.324Z,8.00
2022-07-26T20:30:48.429Z,6.10
2022-07-26T20:33:46.088Z,6.00
2022-07-26T20:36:43.572Z,8.50
2022-07-26T20:39:41.057Z,6.80
2022-07-26T20:42:40.408Z,6.00
2022-07-26T20:45:39.525Z,5.40
2022-07-26T20:48:37.083Z,8.10
2022-07-26T20:51:34.570Z,5.80
2022-07-26T20:54:32.365Z,7.00
2022-07-26T20:57:29.858Z,5.10
2022-07-26T21:00:27.393Z,6.10
2022-07-26T21:03:24.898Z,8.60
2022-07-26T21:06:22.361Z,5.50
2022-07-26T21:09:27.067Z,4.90
2022-07-26T21:12:24.533Z,6.70
2022-07-26T21:15:22.023Z,5.20
2022-07-26T21:18:19.509Z,4.70
2022-07-26T21:21:17.239Z,5.10
2022-07-26T21:24:14.719Z,4.70
2022-07-26T21:27:12.182Z,6.10
2022-07-26T21:30:09.744Z,5.80
2022-07-26T21:33:08.061Z,5.70
2022-07-26T21:36:05.635Z,5.90
2022-07-26T21:39:03.107Z,8.60
2022-07-26T21:42:00.570Z,5.00
2022-07-26T21:44:58.077Z,4.60
2022-07-26T21:47:55.572Z,4.10
2022-07-26T21:50:53.062Z,6.10
2022-07-26T21:53:50.529Z,4.80
2022-07-26T21:56:48.407Z,6.00
2022-07-26T21:59:45.887Z,5.30
2022-07-26T22:02:43.410Z,5.10
2022-07-26T22:05:42.663Z,4.10
2022-07-26T22:08:40.208Z,6.30
2022-07-26T22:11:37.693Z,4.90
2022-07-26T22:14:35.193Z,6.80
2022-07-26T22:17:32.690Z,5.90
2022-07-26T22:20:31.949Z,4.50
2022-07-26T22:23:31.141Z,4.20
2022-07-26T22:26:31.297Z,4.50
2022-07-26T22:29:39.922Z,4.50
2022-07-26T22:32:37.791Z,3.00
2022-07-26T22:35:36.356Z,6.00
2022-07-26T22:38:34.250Z,3.80
2022-07-26T22:41:32.651Z,3.90
2022-07-26T22:44:31.430Z,4.00
2022-07-26T22:47:28.900Z,3.70
2022-07-26T22:50:26.408Z,5.30
2022-07-26T22:53:23.875Z,3.80
2022-07-26T22:56:21.383Z,3.30
2022-07-26T22:59:18.888Z,3.10
2022-07-26T23:02:16.358Z,3.50
2022-07-26T23:05:13.850Z,2.90
2022-07-26T23:08:36.607Z,3.90
2022-07-26T23:11:28.800Z,5.40
2022-07-26T23:14:29.353Z,4.00
2022-07-26T23:17:26.838Z,3.10
2022-07-26T23:20:24.366Z,3.30
2022-07-26T23:23:21.816Z,3.40
2022-07-26T23:26:19.278Z,3.60
2022-07-26T23:29:16.769Z,6.10
2022-07-26T23:32:14.262Z,5.20
2022-07-26T23:35:12.954Z,6.50
2022-07-26T23:38:10.406Z,3.50
2022-07-26T23:41:07.895Z,4.50
2022-07-26T23:44:05.373Z,3.20
2022-07-26T23:47:03.045Z,10.20
2022-07-26T23:50:00.689Z,3.40
2022-07-26T23:52:58.184Z,4.30
2022-07-26T23:55:55.680Z,2.90
2022-07-26T23:58:53.151Z,3.90
